NCAR-RAP Real-Time Weather Data

Output produced by METARs form (23 January 2018  15:46 UTC)
found at http://weather.rap.ucar.edu/surface/
 
RJNW 231000Z 32005KT 250V010 9999 -SHSN FEW000 SCT005 BKN010 M02/M03 Q1009
RJNW 230900Z 29007KT 240V340 1500 R25/P1800N -SHSN FEW000 SCT005 BKN010 M02/M02 Q1008
RJNW 230800Z 32009KT 270V020 0200 R25/0750VP1800D SHSN VV001 M02/M02 Q1007
RJNW 230700Z 27011KT 240V300 9999 -SHSN FEW010 SCT015 BKN020 01/M03 Q1006
RJNW 230600Z 26028G42KT 9999 FEW005 SCT010 BKN020 02/M05 Q1004
RJNW 230500Z 26016G29KT 7000 -SHSN FEW005 SCT010 BKN015 01/M01 Q1004
RJNW 230400Z 27019G36KT 3500 -SHSN FEW000 SCT005 BKN010 01/00 Q1003
RJNW 230300Z 26021G36KT 2000 R25/0800VP1800U -SHSN FEW000 SCT005 BKN010 01/M00 Q1003
RJNW 230200Z 26030G47KT 9999 FEW010 SCT020 BKN030 04/M01 Q1002
RJNW 230100Z 26026G39KT 9999 FEW010 SCT020 BKN030 04/02 Q1002
RJNW 230000Z 26023G35KT 9999 VCSH FEW000 SCT010 BKN020 04/02 Q1001
RJNW 222300Z 22015KT 190V250 9999 -SHRA FEW000 SCT003 BKN006 FEW015CB 02/02 Q1002
RJNW 221000Z 09006KT 3500 -SNRA FEW000 SCT002 BKN003 01/01 Q1010
RJNW 220900Z 09006KT 2500 -SN FEW000 SCT002 BKN003 00/00 Q1010
RJNW 220800Z 07007KT 1000 R25/P1800N -SN FEW000 SCT001 BKN002 00/00 Q1011
RJNW 220700Z 08006KT 0600 R25/1300V1700U SN VV003 00/00 Q1011
RJNW 220600Z 09006KT 2000 -SN FEW000 SCT003 BKN006 01/00 Q1011
RJNW 220500Z 09009KT 9999 -SN FEW010 SCT020 BKN030 01/M01 Q1011
RJNW 220400Z 07009KT 9999 -SN FEW010 BKN030 BKN040 02/M01 Q1012
RJNW 220300Z 08009KT 9999 FEW010 SCT040 BKN050 01/M01 Q1014
RJNW 220200Z 09009KT 9999 FEW010 SCT045 BKN050 02/M01 Q1016
RJNW 220100Z 08009KT 9999 FEW010 SCT015 BKN050 01/M01 Q1017
RJNW 220000Z 07009KT 9999 FEW010 SCT025 BKN060 00/M01 Q1019
RJNW 212300Z 07007KT 9999 FEW010 SCT020 BKN025 M01/M02 Q1019
RJNW 211000Z 01004KT 320V080 9999 FEW020 SCT060 BKN070 M00/M02 Q1021
RJNW 210900Z 01005KT 320V060 5000 -SHSN FEW010 SCT020 BKN025 00/M01 Q1021
RJNW 210800Z 35008KT 300V040 2000 -SHSN FEW000 SCT015 BKN025 00/M00 Q1020
RJNW 210700Z 35006KT 290V070 2000 -SHSN FEW000 SCT007 BKN010 01/00 Q1019
RJNW 210600Z 36004KT 290V050 3000 -SHSNRA FEW000 SCT008 BKN010 01/01 Q1018
RJNW 210500Z 02005KT 280V090 4000 -SHRA BR FEW000 SCT007 BKN010 03/02 Q1017
RJNW 210400Z 34004KT 240V030 5000 -SHRA BR FEW000 SCT010 BKN015 03/02 Q1017